sensor_id;sensor_type;location;lat;lon;timestamp;pressure;altitude;pressure_sealevel;temperature;humidity
59337;BME280;45115;52.002;4.686;2023-04-23T00:00:57;100827.66;;;7.28;100.00
59337;BME280;45115;52.002;4.686;2023-04-23T00:03:29;100825.19;;;7.25;100.00
59337;BME280;45115;52.002;4.686;2023-04-23T00:06:04;100794.84;;;7.07;100.00
59337;BME280;45115;52.002;4.686;2023-04-23T00:08:32;100815.41;;;7.22;100.00
59337;BME280;45115;52.002;4.686;2023-04-23T00:10:59;100815.91;;;7.27;100.00
59337;BME280;45115;52.002;4.686;2023-04-23T00:13:26;100823.94;;;7.18;100.00
59337;BME280;45115;52.002;4.686;2023-04-23T00:15:54;100819.38;;;7.18;100.00
59337;BME280;45115;52.002;4.686;2023-04-23T00:18:20;100817.53;;;7.19;100.00
59337;BME280;45115;52.002;4.686;2023-04-23T00:20:48;100809.09;;;7.22;100.00
59337;BME280;45115;52.002;4.686;2023-04-23T00:23:15;100813.41;;;7.24;100.00
59337;BME280;45115;52.002;4.686;2023-04-23T00:25:42;100816.41;;;7.32;100.00
59337;BME280;45115;52.002;4.686;2023-04-23T00:28:08;100812.94;;;7.41;100.00
59337;BME280;45115;52.002;4.686;2023-04-23T00:30:35;100810.94;;;7.43;100.00
59337;BME280;45115;52.002;4.686;2023-04-23T00:33:02;100805.59;;;7.42;100.00
59337;BME280;45115;52.002;4.686;2023-04-23T00:35:28;100795.06;;;7.48;100.00
59337;BME280;45115;52.002;4.686;2023-04-23T00:37:56;100790.72;;;7.57;100.00
59337;BME280;45115;52.002;4.686;2023-04-23T00:40:23;100787.25;;;7.66;100.00
59337;BME280;45115;52.002;4.686;2023-04-23T00:42:50;100791.41;;;7.70;100.00
59337;BME280;45115;52.002;4.686;2023-04-23T00:45:18;100785.00;;;7.71;100.00
59337;BME280;45115;52.002;4.686;2023-04-23T00:47:45;100770.28;;;7.62;100.00
59337;BME280;45115;52.002;4.686;2023-04-23T00:50:11;100777.84;;;7.59;100.00
59337;BME280;45115;52.002;4.686;2023-04-23T00:52:39;100773.50;;;7.56;100.00
59337;BME280;45115;52.002;4.686;2023-04-23T00:55:07;100776.34;;;7.55;100.00
59337;BME280;45115;52.002;4.686;2023-04-23T00:57:35;100763.34;;;7.58;100.00
59337;BME280;45115;52.002;4.686;2023-04-23T01:00:03;100769.66;;;7.59;100.00
59337;BME280;45115;52.002;4.686;2023-04-23T01:02:31;100765.66;;;7.63;100.00
59337;BME280;45115;52.002;4.686;2023-04-23T01:05:01;100770.47;;;7.70;100.00
59337;BME280;45115;52.002;4.686;2023-04-23T01:07:30;100767.13;;;7.78;100.00
59337;BME280;45115;52.002;4.686;2023-04-23T01:09:57;100761.53;;;7.79;100.00
59337;BME280;45115;52.002;4.686;2023-04-23T01:12:25;100762.47;;;7.89;100.00
59337;BME280;45115;52.002;4.686;2023-04-23T01:14:52;100759.75;;;7.89;100.00
59337;BME280;45115;52.002;4.686;2023-04-23T01:17:18;100761.22;;;7.93;100.00
59337;BME280;45115;52.002;4.686;2023-04-23T01:19:45;100761.50;;;7.90;100.00
59337;BME280;45115;52.002;4.686;2023-04-23T01:22:14;100750.81;;;7.87;100.00
59337;BME280;45115;52.002;4.686;2023-04-23T01:24:41;100749.59;;;7.91;100.00
59337;BME280;45115;52.002;4.686;2023-04-23T01:27:09;100747.72;;;7.92;100.00
59337;BME280;45115;52.002;4.686;2023-04-23T01:29:37;100745.25;;;7.89;100.00
59337;BME280;45115;52.002;4.686;2023-04-23T01:32:04;100749.72;;;7.90;100.00
59337;BME280;45115;52.002;4.686;2023-04-23T01:34:31;100751.19;;;7.94;100.00
59337;BME280;45115;52.002;4.686;2023-04-23T01:36:59;100748.97;;;7.88;100.00
59337;BME280;45115;52.002;4.686;2023-04-23T01:39:27;100751.09;;;7.84;100.00
59337;BME280;45115;52.002;4.686;2023-04-23T01:41:54;100739.19;;;7.85;100.00
59337;BME280;45115;52.002;4.686;2023-04-23T01:44:21;100739.19;;;7.85;100.00
59337;BME280;45115;52.002;4.686;2023-04-23T01:46:48;100734.34;;;7.89;100.00
59337;BME280;45115;52.002;4.686;2023-04-23T01:49:15;100734.34;;;7.89;100.00
59337;BME280;45115;52.002;4.686;2023-04-23T01:51:42;100740.91;;;7.98;100.00
59337;BME280;45115;52.002;4.686;2023-04-23T01:54:08;100737.44;;;7.96;100.00
59337;BME280;45115;52.002;4.686;2023-04-23T01:56:36;100739.75;;;8.00;100.00
59337;BME280;45115;52.002;4.686;2023-04-23T01:59:03;100733.19;;;8.03;100.00
59337;BME280;45115;52.002;4.686;2023-04-23T02:01:41;100735.16;;;8.01;100.00
59337;BME280;45115;52.002;4.686;2023-04-23T02:04:09;100740.06;;;8.07;100.00
59337;BME280;45115;52.002;4.686;2023-04-23T02:06:37;100733.66;;;8.08;100.00
59337;BME280;45115;52.002;4.686;2023-04-23T02:09:03;100736.09;;;8.11;100.00
59337;BME280;45115;52.002;4.686;2023-04-23T02:11:30;100730.78;;;8.09;100.00
59337;BME280;45115;52.002;4.686;2023-04-23T02:13:58;100731.97;;;8.16;100.00
59337;BME280;45115;52.002;4.686;2023-04-23T02:16:25;100725.06;;;8.12;100.00
59337;BME280;45115;52.002;4.686;2023-04-23T02:18:52;100733.22;;;8.12;100.00
59337;BME280;45115;52.002;4.686;2023-04-23T02:21:19;100729.84;;;8.20;100.00
59337;BME280;45115;52.002;4.686;2023-04-23T02:23:46;100726.13;;;8.21;100.00
59337;BME280;45115;52.002;4.686;2023-04-23T02:26:12;100722.91;;;8.16;100.00
59337;BME280;45115;52.002;4.686;2023-04-23T02:28:39;100726.00;;;8.22;100.00
59337;BME280;45115;52.002;4.686;2023-04-23T02:31:07;100727.00;;;8.21;100.00
59337;BME280;45115;52.002;4.686;2023-04-23T02:33:37;100718.03;;;8.30;100.00
59337;BME280;45115;52.002;4.686;2023-04-23T02:36:05;100710.13;;;8.27;100.00
59337;BME280;45115;52.002;4.686;2023-04-23T02:38:31;100719.91;;;8.30;100.00
59337;BME280;45115;52.002;4.686;2023-04-23T02:40:58;100718.44;;;8.26;100.00
59337;BME280;45115;52.002;4.686;2023-04-23T02:43:24;100725.22;;;8.31;100.00
59337;BME280;45115;52.002;4.686;2023-04-23T02:45:51;100721.97;;;8.37;100.00
59337;BME280;45115;52.002;4.686;2023-04-23T02:48:19;100720.94;;;8.38;100.00
59337;BME280;45115;52.002;4.686;2023-04-23T02:50:46;100724.03;;;8.45;100.00
59337;BME280;45115;52.002;4.686;2023-04-23T02:53:13;100720.81;;;8.40;100.00
59337;BME280;45115;52.002;4.686;2023-04-23T02:55:40;100728.16;;;8.39;100.00
59337;BME280;45115;52.002;4.686;2023-04-23T02:58:07;100731.03;;;8.38;100.00
59337;BME280;45115;52.002;4.686;2023-04-23T03:00:35;100723.09;;;8.35;100.00
59337;BME280;45115;52.002;4.686;2023-04-23T03:03:02;100719.75;;;8.31;100.00
59337;BME280;45115;52.002;4.686;2023-04-23T03:05:30;100718.19;;;8.29;100.00
59337;BME280;45115;52.002;4.686;2023-04-23T03:07:57;100715.19;;;8.32;100.00
59337;BME280;45115;52.002;4.686;2023-04-23T03:10:23;100721.03;;;8.27;100.00
59337;BME280;45115;52.002;4.686;2023-04-23T03:12:51;100714.59;;;8.17;100.00
59337;BME280;45115;52.002;4.686;2023-04-23T03:15:18;100719.88;;;8.09;100.00
59337;BME280;45115;52.002;4.686;2023-04-23T03:17:45;100712.41;;;8.11;100.00
59337;BME280;45115;52.002;4.686;2023-04-23T03:20:12;100711.69;;;8.09;100.00
59337;BME280;45115;52.002;4.686;2023-04-23T03:22:40;100717.13;;;8.09;100.00
59337;BME280;45115;52.002;4.686;2023-04-23T03:25:07;100716.69;;;8.04;100.00
59337;BME280;45115;52.002;4.686;2023-04-23T03:27:34;100714.94;;;8.03;100.00
59337;BME280;45115;52.002;4.686;2023-04-23T03:30:01;100706.63;;;8.05;100.00
59337;BME280;45115;52.002;4.686;2023-04-23T03:32:28;100703.91;;;8.05;100.00
59337;BME280;45115;52.002;4.686;2023-04-23T03:34:54;100697.59;;;8.04;100.00
59337;BME280;45115;52.002;4.686;2023-04-23T03:37:21;100702.16;;;8.04;100.00
59337;BME280;45115;52.002;4.686;2023-04-23T03:39:49;100700.91;;;8.08;100.00
59337;BME280;45115;52.002;4.686;2023-04-23T03:42:16;100698.03;;;8.09;100.00
59337;BME280;45115;52.002;4.686;2023-04-23T03:44:43;100702.25;;;8.13;100.00
59337;BME280;45115;52.002;4.686;2023-04-23T03:47:10;100692.31;;;8.12;100.00
59337;BME280;45115;52.002;4.686;2023-04-23T03:49:37;100699.06;;;8.08;100.00
59337;BME280;45115;52.002;4.686;2023-04-23T03:52:05;100701.78;;;8.08;100.00
59337;BME280;45115;52.002;4.686;2023-04-23T03:54:34;100703.38;;;8.11;100.00
59337;BME280;45115;52.002;4.686;2023-04-23T03:57:12;100700.91;;;8.08;100.00
59337;BME280;45115;52.002;4.686;2023-04-23T03:59:52;100702.25;;;8.13;100.00
59337;BME280;45115;52.002;4.686;2023-04-23T04:02:19;100700.97;;;8.17;100.00
59337;BME280;45115;52.002;4.686;2023-04-23T04:04:45;100702.09;;;8.15;100.00
59337;BME280;45115;52.002;4.686;2023-04-23T04:07:15;100704.69;;;8.16;100.00
59337;BME280;45115;52.002;4.686;2023-04-23T04:09:42;100707.69;;;8.13;100.00
59337;BME280;45115;52.002;4.686;2023-04-23T04:12:08;100709.88;;;8.19;100.00
59337;BME280;45115;52.002;4.686;2023-04-23T04:14:37;100714.59;;;8.17;100.00
59337;BME280;45115;52.002;4.686;2023-04-23T04:17:04;100708.97;;;8.09;100.00
59337;BME280;45115;52.002;4.686;2023-04-23T04:19:30;100712.16;;;8.14;100.00
59337;BME280;45115;52.002;4.686;2023-04-23T04:21:57;100703.69;;;7.97;100.00
59337;BME280;45115;52.002;4.686;2023-04-23T04:24:24;100712.81;;;8.07;100.00
59337;BME280;45115;52.002;4.686;2023-04-23T04:26:50;100707.75;;;8.02;100.00
59337;BME280;45115;52.002;4.686;2023-04-23T04:29:18;100692.78;;;7.97;100.00
59337;BME280;45115;52.002;4.686;2023-04-23T04:31:47;100690.94;;;7.97;100.00
59337;BME280;45115;52.002;4.686;2023-04-23T04:34:13;100695.69;;;7.84;100.00
59337;BME280;45115;52.002;4.686;2023-04-23T04:36:40;100699.56;;;7.81;100.00
59337;BME280;45115;52.002;4.686;2023-04-23T04:39:07;100697.06;;;7.78;100.00
59337;BME280;45115;52.002;4.686;2023-04-23T04:41:35;100697.34;;;7.75;100.00
59337;BME280;45115;52.002;4.686;2023-04-23T04:44:02;100689.31;;;7.74;100.00
59337;BME280;45115;52.002;4.686;2023-04-23T04:46:29;100700.03;;;7.86;100.00
59337;BME280;45115;52.002;4.686;2023-04-23T04:48:57;100691.91;;;7.96;100.00
59337;BME280;45115;52.002;4.686;2023-04-23T04:51:24;100699.06;;;8.08;100.00
59337;BME280;45115;52.002;4.686;2023-04-23T04:53:51;100696.66;;;8.15;100.00
59337;BME280;45115;52.002;4.686;2023-04-23T04:56:18;100700.84;;;8.19;100.00
59337;BME280;45115;52.002;4.686;2023-04-23T04:58:46;100696.34;;;8.29;100.00
59337;BME280;45115;52.002;4.686;2023-04-23T05:01:13;100692.09;;;8.36;99.93
59337;BME280;45115;52.002;4.686;2023-04-23T05:03:40;100705.63;;;8.47;100.00
59337;BME280;45115;52.002;4.686;2023-04-23T05:06:08;100693.72;;;8.48;99.61
59337;BME280;45115;52.002;4.686;2023-04-23T05:08:35;100695.19;;;8.52;99.13
59337;BME280;45115;52.002;4.686;2023-04-23T05:11:02;100705.56;;;8.58;98.63
59337;BME280;45115;52.002;4.686;2023-04-23T05:13:29;100709.03;;;8.60;99.07
59337;BME280;45115;52.002;4.686;2023-04-23T05:15:55;100708.16;;;8.59;98.46
59337;BME280;45115;52.002;4.686;2023-04-23T05:18:22;100717.31;;;8.79;98.80
59337;BME280;45115;52.002;4.686;2023-04-23T05:20:49;100706.97;;;8.82;98.50
59337;BME280;45115;52.002;4.686;2023-04-23T05:23:17;100705.25;;;8.81;98.40
59337;BME280;45115;52.002;4.686;2023-04-23T05:25:44;100713.06;;;8.95;98.50
59337;BME280;45115;52.002;4.686;2023-04-23T05:28:10;100707.38;;;9.18;98.19
59337;BME280;45115;52.002;4.686;2023-04-23T05:30:37;100699.78;;;9.21;96.96
59337;BME280;45115;52.002;4.686;2023-04-23T05:33:04;100701.50;;;9.22;97.42
59337;BME280;45115;52.002;4.686;2023-04-23T05:35:30;100705.41;;;9.29;97.33
59337;BME280;45115;52.002;4.686;2023-04-23T05:37:57;100705.00;;;9.34;96.57
59337;BME280;45115;52.002;4.686;2023-04-23T05:40:25;100697.22;;;9.39;96.69
59337;BME280;45115;52.002;4.686;2023-04-23T05:42:52;100704.56;;;9.38;96.60
59337;BME280;45115;52.002;4.686;2023-04-23T05:45:19;100705.72;;;9.45;96.33
59337;BME280;45115;52.002;4.686;2023-04-23T05:47:46;100704.44;;;9.49;96.58
59337;BME280;45115;52.002;4.686;2023-04-23T05:50:12;100693.34;;;9.51;96.31
59337;BME280;45115;52.002;4.686;2023-04-23T05:52:39;100697.69;;;9.63;95.78
59337;BME280;45115;52.002;4.686;2023-04-23T05:55:06;100686.03;;;9.70;96.17
59337;BME280;45115;52.002;4.686;2023-04-23T05:57:35;100690.78;;;9.78;95.59
59337;BME280;45115;52.002;4.686;2023-04-23T06:00:02;100693.69;;;9.86;94.96
59337;BME280;45115;52.002;4.686;2023-04-23T06:02:37;100687.03;;;9.88;94.91
59337;BME280;45115;52.002;4.686;2023-04-23T06:05:04;100686.88;;;9.99;94.99
59337;BME280;45115;52.002;4.686;2023-04-23T06:07:32;100689.91;;;10.06;94.80
59337;BME280;45115;52.002;4.686;2023-04-23T06:09:59;100686.06;;;10.18;94.26
59337;BME280;45115;52.002;4.686;2023-04-23T06:12:25;100683.59;;;10.25;93.38
59337;BME280;45115;52.002;4.686;2023-04-23T06:14:53;100679.53;;;10.38;93.28
59337;BME280;45115;52.002;4.686;2023-04-23T06:17:20;100677.19;;;10.43;92.93
59337;BME280;45115;52.002;4.686;2023-04-23T06:19:47;100682.34;;;10.56;92.49
59337;BME280;45115;52.002;4.686;2023-04-23T06:22:13;100675.28;;;10.63;91.84
59337;BME280;45115;52.002;4.686;2023-04-23T06:24:40;100681.97;;;10.78;91.45
59337;BME280;45115;52.002;4.686;2023-04-23T06:27:06;100665.66;;;10.86;91.32
59337;BME280;45115;52.002;4.686;2023-04-23T06:29:37;100667.19;;;10.98;90.49
59337;BME280;45115;52.002;4.686;2023-04-23T06:32:06;100678.41;;;11.04;90.36
59337;BME280;45115;52.002;4.686;2023-04-23T06:34:33;100665.66;;;11.13;89.93
59337;BME280;45115;52.002;4.686;2023-04-23T06:36:59;100658.81;;;11.27;90.08
59337;BME280;45115;52.002;4.686;2023-04-23T06:39:26;100660.22;;;11.48;89.50
59337;BME280;45115;52.002;4.686;2023-04-23T06:41:53;100660.00;;;12.29;86.96
59337;BME280;45115;52.002;4.686;2023-04-23T06:44:53;100657.41;;;13.95;79.59
59337;BME280;45115;52.002;4.686;2023-04-23T06:47:22;100643.91;;;14.88;74.80
59337;BME280;45115;52.002;4.686;2023-04-23T06:49:48;100654.44;;;15.23;72.29
59337;BME280;45115;52.002;4.686;2023-04-23T06:52:15;100650.19;;;15.13;73.83
59337;BME280;45115;52.002;4.686;2023-04-23T06:54:42;100651.41;;;15.49;72.19
59337;BME280;45115;52.002;4.686;2023-04-23T06:57:08;100655.69;;;15.82;70.73
59337;BME280;45115;52.002;4.686;2023-04-23T06:59:35;100645.88;;;15.80;69.96
59337;BME280;45115;52.002;4.686;2023-04-23T07:02:02;100637.97;;;16.36;69.23
59337;BME280;45115;52.002;4.686;2023-04-23T07:04:30;100636.72;;;17.05;67.43
59337;BME280;45115;52.002;4.686;2023-04-23T07:06:57;100649.97;;;17.24;64.94
59337;BME280;45115;52.002;4.686;2023-04-23T07:09:25;100637.97;;;17.17;64.53
59337;BME280;45115;52.002;4.686;2023-04-23T07:11:52;100636.25;;;17.02;65.24
59337;BME280;45115;52.002;4.686;2023-04-23T07:14:18;100645.56;;;16.57;66.54
59337;BME280;45115;52.002;4.686;2023-04-23T07:16:45;100641.03;;;16.93;66.11
59337;BME280;45115;52.002;4.686;2023-04-23T07:19:11;100646.16;;;16.67;66.44
59337;BME280;45115;52.002;4.686;2023-04-23T07:21:39;100626.34;;;17.43;64.67
59337;BME280;45115;52.002;4.686;2023-04-23T07:24:06;100626.09;;;18.37;62.60
59337;BME280;45115;52.002;4.686;2023-04-23T07:26:33;100616.88;;;18.85;60.47
59337;BME280;45115;52.002;4.686;2023-04-23T07:29:00;100622.09;;;18.95;58.60
59337;BME280;45115;52.002;4.686;2023-04-23T07:31:27;100624.09;;;18.79;58.44
59337;BME280;45115;52.002;4.686;2023-04-23T07:33:54;100619.41;;;18.80;58.09
59337;BME280;45115;52.002;4.686;2023-04-23T07:36:24;100625.56;;;18.48;58.45
59337;BME280;45115;52.002;4.686;2023-04-23T07:38:52;100613.38;;;19.04;56.74
59337;BME280;45115;52.002;4.686;2023-04-23T07:41:19;100613.47;;;19.77;55.49
59337;BME280;45115;52.002;4.686;2023-04-23T07:43:45;100625.72;;;20.02;54.35
59337;BME280;45115;52.002;4.686;2023-04-23T07:46:12;100607.59;;;20.46;51.35
59337;BME280;45115;52.002;4.686;2023-04-23T07:48:39;100616.75;;;20.92;50.43
59337;BME280;45115;52.002;4.686;2023-04-23T07:51:05;100607.94;;;22.09;47.55
59337;BME280;45115;52.002;4.686;2023-04-23T07:53:32;100614.56;;;21.64;47.55
59337;BME280;45115;52.002;4.686;2023-04-23T07:56:01;100614.38;;;22.35;47.74
59337;BME280;45115;52.002;4.686;2023-04-23T07:58:27;100609.41;;;22.37;46.10
59337;BME280;45115;52.002;4.686;2023-04-23T08:00:54;100609.75;;;21.91;46.48
59337;BME280;45115;52.002;4.686;2023-04-23T08:03:21;100606.53;;;22.18;46.05
59337;BME280;45115;52.002;4.686;2023-04-23T08:05:47;100605.53;;;21.75;48.36
59337;BME280;45115;52.002;4.686;2023-04-23T08:08:14;100603.41;;;21.27;49.08
59337;BME280;45115;52.002;4.686;2023-04-23T08:10:41;100599.63;;;21.08;49.58
59337;BME280;45115;52.002;4.686;2023-04-23T08:13:09;100601.44;;;21.34;48.11
59337;BME280;45115;52.002;4.686;2023-04-23T08:15:35;100598.16;;;21.43;47.91
59337;BME280;45115;52.002;4.686;2023-04-23T08:18:04;100590.03;;;21.86;46.97
59337;BME280;45115;52.002;4.686;2023-04-23T08:20:30;100587.41;;;22.22;46.13
59337;BME280;45115;52.002;4.686;2023-04-23T08:22:58;100575.78;;;22.74;44.54
59337;BME280;45115;52.002;4.686;2023-04-23T08:25:25;100584.63;;;22.47;45.17
59337;BME280;45115;52.002;4.686;2023-04-23T08:27:51;100588.25;;;21.98;46.09
59337;BME280;45115;52.002;4.686;2023-04-23T08:30:19;100598.75;;;22.02;46.73
59337;BME280;45115;52.002;4.686;2023-04-23T08:32:48;100597.75;;;21.46;47.78
59337;BME280;45115;52.002;4.686;2023-04-23T08:35:15;100593.91;;;20.57;50.22
59337;BME280;45115;52.002;4.686;2023-04-23T08:37:42;100593.81;;;19.25;52.83
59337;BME280;45115;52.002;4.686;2023-04-23T08:40:09;100597.31;;;19.34;53.52
59337;BME280;45115;52.002;4.686;2023-04-23T08:42:37;100590.81;;;18.86;54.39
59337;BME280;45115;52.002;4.686;2023-04-23T08:45:07;100592.56;;;18.87;56.15
59337;BME280;45115;52.002;4.686;2023-04-23T08:47:36;100593.78;;;19.19;55.29
59337;BME280;45115;52.002;4.686;2023-04-23T08:50:07;100600.34;;;19.45;54.61
59337;BME280;45115;52.002;4.686;2023-04-23T08:52:38;100598.66;;;18.76;55.28
59337;BME280;45115;52.002;4.686;2023-04-23T08:55:07;100591.56;;;18.67;56.43
59337;BME280;45115;52.002;4.686;2023-04-23T08:57:36;100602.72;;;18.73;57.17
59337;BME280;45115;52.002;4.686;2023-04-23T09:00:05;100603.78;;;18.45;57.16
59337;BME280;45115;52.002;4.686;2023-04-23T09:02:32;100599.69;;;18.41;57.74
59337;BME280;45115;52.002;4.686;2023-04-23T09:05:02;100605.22;;;18.68;57.41
59337;BME280;45115;52.002;4.686;2023-04-23T09:07:29;100603.81;;;18.79;57.08
59337;BME280;45115;52.002;4.686;2023-04-23T09:09:55;100609.25;;;18.38;56.61
59337;BME280;45115;52.002;4.686;2023-04-23T09:12:22;100596.63;;;18.08;57.20
59337;BME280;45115;52.002;4.686;2023-04-23T09:14:49;100607.53;;;17.53;59.75
59337;BME280;45115;52.002;4.686;2023-04-23T09:17:17;100598.34;;;17.88;59.19
59337;BME280;45115;52.002;4.686;2023-04-23T09:19:44;100597.69;;;17.86;60.08
59337;BME280;45115;52.002;4.686;2023-04-23T09:22:12;100593.41;;;17.83;59.56
59337;BME280;45115;52.002;4.686;2023-04-23T09:24:40;100588.81;;;17.55;60.11
59337;BME280;45115;52.002;4.686;2023-04-23T09:27:08;100596.44;;;17.17;60.77
59337;BME280;45115;52.002;4.686;2023-04-23T09:29:35;100588.00;;;17.25;60.80
59337;BME280;45115;52.002;4.686;2023-04-23T09:32:06;100585.13;;;17.69;60.70
59337;BME280;45115;52.002;4.686;2023-04-23T09:34:34;100577.84;;;17.83;60.81
59337;BME280;45115;52.002;4.686;2023-04-23T09:37:01;100587.00;;;17.83;59.92
59337;BME280;45115;52.002;4.686;2023-04-23T09:39:32;100581.78;;;18.16;59.93
59337;BME280;45115;52.002;4.686;2023-04-23T09:42:01;100576.72;;;18.26;58.77
59337;BME280;45115;52.002;4.686;2023-04-23T09:44:31;100579.09;;;18.56;56.63
59337;BME280;45115;52.002;4.686;2023-04-23T09:47:05;100577.25;;;18.63;56.29
59337;BME280;45115;52.002;4.686;2023-04-23T09:49:44;100579.25;;;18.76;56.83
59337;BME280;45115;52.002;4.686;2023-04-23T09:52:10;100573.47;;;18.71;58.30
59337;BME280;45115;52.002;4.686;2023-04-23T09:54:39;100574.81;;;18.47;56.53
59337;BME280;45115;52.002;4.686;2023-04-23T09:57:05;100569.56;;;18.38;56.75
59337;BME280;45115;52.002;4.686;2023-04-23T09:59:34;100567.13;;;18.28;56.48
59337;BME280;45115;52.002;4.686;2023-04-23T10:02:03;100562.69;;;18.06;58.20
59337;BME280;45115;52.002;4.686;2023-04-23T10:04:30;100564.03;;;17.89;57.33
59337;BME280;45115;52.002;4.686;2023-04-23T10:06:59;100564.25;;;17.66;58.63
59337;BME280;45115;52.002;4.686;2023-04-23T10:09:26;100562.75;;;17.92;57.20
59337;BME280;45115;52.002;4.686;2023-04-23T10:11:56;100557.56;;;18.03;57.65
59337;BME280;45115;52.002;4.686;2023-04-23T10:14:24;100553.03;;;18.23;58.39
59337;BME280;45115;52.002;4.686;2023-04-23T10:16:55;100546.31;;;18.39;57.29
59337;BME280;45115;52.002;4.686;2023-04-23T10:19:22;100552.03;;;18.31;57.42
59337;BME280;45115;52.002;4.686;2023-04-23T10:21:53;100547.34;;;18.31;56.43
59337;BME280;45115;52.002;4.686;2023-04-23T10:24:22;100549.44;;;18.50;56.95
59337;BME280;45115;52.002;4.686;2023-04-23T10:26:50;100547.91;;;18.48;55.69
59337;BME280;45115;52.002;4.686;2023-04-23T10:29:25;100535.16;;;18.60;57.17
59337;BME280;45115;52.002;4.686;2023-04-23T10:31:53;100537.91;;;18.26;56.59
59337;BME280;45115;52.002;4.686;2023-04-23T10:34:21;100543.50;;;18.05;57.13
59337;BME280;45115;52.002;4.686;2023-04-23T10:36:49;100533.28;;;18.05;56.92
59337;BME280;45115;52.002;4.686;2023-04-23T10:39:17;100528.09;;;18.51;55.97
59337;BME280;45115;52.002;4.686;2023-04-23T10:41:45;100522.13;;;18.54;54.90
59337;BME280;45115;52.002;4.686;2023-04-23T10:44:12;100521.22;;;18.40;54.92
59337;BME280;45115;52.002;4.686;2023-04-23T10:46:50;100516.41;;;18.62;55.46
59337;BME280;45115;52.002;4.686;2023-04-23T10:49:17;100513.75;;;18.88;54.81
59337;BME280;45115;52.002;4.686;2023-04-23T10:51:45;100497.16;;;18.95;53.84
59337;BME280;45115;52.002;4.686;2023-04-23T10:54:13;100499.63;;;18.76;54.25
59337;BME280;45115;52.002;4.686;2023-04-23T10:56:41;100504.41;;;18.55;53.31
59337;BME280;45115;52.002;4.686;2023-04-23T10:59:17;100498.63;;;18.84;54.40
59337;BME280;45115;52.002;4.686;2023-04-23T11:01:46;100496.72;;;18.91;53.34
59337;BME280;45115;52.002;4.686;2023-04-23T11:04:24;100487.94;;;19.35;51.73
59337;BME280;45115;52.002;4.686;2023-04-23T11:06:52;100492.72;;;19.07;51.12
59337;BME280;45115;52.002;4.686;2023-04-23T11:09:44;100493.31;;;19.02;52.12
59337;BME280;45115;52.002;4.686;2023-04-23T11:12:13;100484.53;;;18.85;53.70
59337;BME280;45115;52.002;4.686;2023-04-23T11:14:56;100486.97;;;18.61;53.02
59337;BME280;45115;52.002;4.686;2023-04-23T11:17:57;100481.13;;;18.49;53.08
59337;BME280;45115;52.002;4.686;2023-04-23T11:20:24;100472.81;;;18.22;53.54
59337;BME280;45115;52.002;4.686;2023-04-23T11:22:51;100467.00;;;18.10;54.33
59337;BME280;45115;52.002;4.686;2023-04-23T11:25:19;100466.03;;;17.97;55.83
59337;BME280;45115;52.002;4.686;2023-04-23T11:27:49;100455.41;;;18.00;55.63
59337;BME280;45115;52.002;4.686;2023-04-23T11:30:17;100455.13;;;17.95;54.27
59337;BME280;45115;52.002;4.686;2023-04-23T11:32:47;100456.84;;;18.24;55.87
59337;BME280;45115;52.002;4.686;2023-04-23T11:35:15;100452.78;;;18.54;55.17
59337;BME280;45115;52.002;4.686;2023-04-23T11:37:43;100446.28;;;18.81;54.86
59337;BME280;45115;52.002;4.686;2023-04-23T11:40:11;100441.22;;;18.98;53.57
59337;BME280;45115;52.002;4.686;2023-04-23T11:42:44;100435.50;;;19.19;52.48
59337;BME280;45115;52.002;4.686;2023-04-23T11:45:15;100433.63;;;19.32;51.27
59337;BME280;45115;52.002;4.686;2023-04-23T11:47:43;100426.38;;;19.44;51.04
59337;BME280;45115;52.002;4.686;2023-04-23T11:50:16;100420.19;;;19.36;49.21
59337;BME280;45115;52.002;4.686;2023-04-23T11:52:43;100419.09;;;19.82;50.01
59337;BME280;45115;52.002;4.686;2023-04-23T11:55:10;100410.78;;;19.63;48.90
59337;BME280;45115;52.002;4.686;2023-04-23T11:57:40;100413.16;;;19.40;49.97
59337;BME280;45115;52.002;4.686;2023-04-23T12:00:13;100403.31;;;19.31;49.99
59337;BME280;45115;52.002;4.686;2023-04-23T12:02:49;100398.97;;;19.15;50.67
59337;BME280;45115;52.002;4.686;2023-04-23T12:05:20;100404.38;;;19.36;50.50
59337;BME280;45115;52.002;4.686;2023-04-23T12:07:48;100404.38;;;19.88;49.90
59337;BME280;45115;52.002;4.686;2023-04-23T12:10:17;100397.28;;;20.19;48.45
59337;BME280;45115;52.002;4.686;2023-04-23T12:12:48;100393.19;;;20.15;49.12
59337;BME280;45115;52.002;4.686;2023-04-23T12:15:15;100394.06;;;20.15;48.30
59337;BME280;45115;52.002;4.686;2023-04-23T12:17:41;100387.69;;;19.56;47.96
59337;BME280;45115;52.002;4.686;2023-04-23T12:20:09;100383.66;;;19.52;49.56
59337;BME280;45115;52.002;4.686;2023-04-23T12:22:38;100383.22;;;19.55;49.35
59337;BME280;45115;52.002;4.686;2023-04-23T12:25:05;100374.84;;;19.22;48.99
59337;BME280;45115;52.002;4.686;2023-04-23T12:27:38;100374.66;;;19.50;49.75
59337;BME280;45115;52.002;4.686;2023-04-23T12:30:06;100377.63;;;19.81;49.39
59337;BME280;45115;52.002;4.686;2023-04-23T12:32:33;100374.88;;;19.74;49.15
59337;BME280;45115;52.002;4.686;2023-04-23T12:35:00;100368.84;;;19.84;48.86
59337;BME280;45115;52.002;4.686;2023-04-23T12:37:34;100368.25;;;19.62;48.77
59337;BME280;45115;52.002;4.686;2023-04-23T12:40:03;100362.91;;;19.41;49.51
59337;BME280;45115;52.002;4.686;2023-04-23T12:42:32;100360.53;;;19.25;50.44
59337;BME280;45115;52.002;4.686;2023-04-23T12:45:05;100365.63;;;19.02;50.43
59337;BME280;45115;52.002;4.686;2023-04-23T12:47:32;100362.94;;;18.55;51.34
59337;BME280;45115;52.002;4.686;2023-04-23T12:49:59;100360.00;;;18.22;53.23
59337;BME280;45115;52.002;4.686;2023-04-23T12:52:26;100346.66;;;17.98;53.46
59337;BME280;45115;52.002;4.686;2023-04-23T12:54:53;100350.47;;;17.63;54.56